Overview Statistics Trail Chart Weather Telemetry Raw packets
 

This is the latest recevied weather packets stored in our database for station/object WABI. If no packets are shown the sender has not sent any weather packets the latest 10 day(s).

<< 7 8 9 10 11 >>
Time Temp. Humidity Pressure Rain* Wind** Luminosity Snow
1787484581 25° C 83% 1010 hPa 0 mm - - -
1787482565 25° C 83% 1010 hPa 0 mm - - -
1787480566 27.78° C 74% 1009 hPa 0 mm - - -
1787478441 30° C 59% 1009 hPa 0 mm - - -
1787476443 30° C 59% 1009 hPa 0 mm - - -
1787474213 31.11° C 52% 1008 hPa 0 mm - - -
1787472000 32.22° C 52% 1008 hPa 0 mm - - -
1787469628 32.22° C 52% 1008 hPa 0 mm - - -
1787467518 32.22° C 52% 1008 hPa 0 mm - - -
1787465541 32.22° C 52% 1008 hPa 0 mm - - -
1787463564 32.78° C 49% 1009 hPa 0 mm - - -
1787459171 32.78° C 49% 1010 hPa 0 mm - - -
1787454820 32.22° C 43% 1011 hPa 0 mm - - -
1787450246 31.11° C 52% 1012 hPa 0 mm - - -
1787448259 27.78° C 58% 1013 hPa 0 mm - - -
1787446153 26.11° C 65% 1013 hPa 0 mm - - -
1787444093 23.89° C 78% 1014 hPa 0 mm - - -
1787441938 22.22° C 83% 1013 hPa 0 mm - - -
1787439964 20° C 94% 1013 hPa 0 mm - - -
1787402442 28.89° C 52% 1010 hPa 0 mm - - -
1787400459 28.89° C 52% 1010 hPa 0 mm - - -
1787398465 28.89° C 52% 1010 hPa 0 mm - - -
1787396478 28.89° C 52% 1010 hPa 0 mm - - -
1787394463 28.89° C 52% 1010 hPa 0 mm - - -
1787392483 28.89° C 52% 1010 hPa 0 mm - - -

* Rain latest hour (hover to see other rain measurements)
** Current wind speed in m/s (hover to see current wind gust speed)